createdAt,value
2022-12-17T00:00:20.034Z,45.8
2022-12-17T00:05:17.704Z,45.8
2022-12-17T00:10:18.830Z,46.0
2022-12-17T00:15:17.714Z,46.0
2022-12-17T00:20:17.939Z,45.9
2022-12-17T00:25:17.812Z,45.8
2022-12-17T00:30:17.865Z,45.9
2022-12-17T00:35:17.755Z,45.8
2022-12-17T00:40:18.271Z,45.8
2022-12-17T00:45:17.846Z,45.9
2022-12-17T00:50:17.939Z,46.1
2022-12-17T00:55:18.038Z,46.0
2022-12-17T01:00:18.074Z,46.0
2022-12-17T01:05:17.858Z,45.7
2022-12-17T01:10:18.127Z,45.7
2022-12-17T01:15:18.038Z,45.8
2022-12-17T01:20:18.013Z,45.8
2022-12-17T01:25:17.875Z,45.9
2022-12-17T01:30:18.235Z,45.9
2022-12-17T01:35:17.858Z,46.0
2022-12-17T01:40:17.996Z,46.2
2022-12-17T01:45:18.000Z,46.1
2022-12-17T01:50:18.127Z,46.1
2022-12-17T01:55:18.007Z,46.0
2022-12-17T02:00:19.743Z,46.0
2022-12-17T02:05:18.254Z,46.1
2022-12-17T02:10:18.275Z,46.0
2022-12-17T02:15:18.031Z,45.9
2022-12-17T02:20:18.133Z,46.0
2022-12-17T02:25:18.164Z,46.1
2022-12-17T02:30:18.189Z,46.2
2022-12-17T02:35:18.298Z,46.2
2022-12-17T02:40:18.388Z,46.1
2022-12-17T02:45:18.188Z,46.0
2022-12-17T02:50:18.099Z,45.9
2022-12-17T02:55:18.374Z,46.2
2022-12-17T03:00:16.606Z,46.1
2022-12-17T03:05:43.470Z,46.2
2022-12-17T03:10:16.491Z,46.3
2022-12-17T03:15:16.168Z,46.3
2022-12-17T03:20:16.246Z,46.3
2022-12-17T03:25:16.234Z,46.4
2022-12-17T03:30:16.216Z,46.3
2022-12-17T03:35:16.287Z,46.3
2022-12-17T03:40:16.446Z,46.4
2022-12-17T03:45:16.478Z,46.4
2022-12-17T03:50:16.397Z,46.4
2022-12-17T03:55:16.367Z,46.4
2022-12-17T04:00:17.278Z,46.4
2022-12-17T04:05:20.075Z,46.4
2022-12-17T04:10:16.792Z,46.3
2022-12-17T04:15:16.369Z,46.3
2022-12-17T04:20:16.731Z,46.2
2022-12-17T04:25:16.449Z,46.2
2022-12-17T04:30:16.448Z,46.2
2022-12-17T04:35:16.394Z,46.2
2022-12-17T04:40:16.710Z,46.1
2022-12-17T04:45:16.416Z,46.1
2022-12-17T04:50:16.619Z,46.1
2022-12-17T04:55:16.835Z,46.1
2022-12-17T05:00:17.548Z,46.0
2022-12-17T05:05:17.514Z,46.1
2022-12-17T05:10:17.736Z,46.0
2022-12-17T05:15:17.516Z,46.0
2022-12-17T05:20:17.586Z,46.0
2022-12-17T05:25:17.876Z,46.0
2022-12-17T05:30:17.537Z,46.0
2022-12-17T05:35:17.557Z,46.0
2022-12-17T05:40:32.475Z,45.9
2022-12-17T05:45:17.573Z,45.8
2022-12-17T05:50:17.737Z,45.6
2022-12-17T05:55:17.761Z,45.4
2022-12-17T06:00:19.068Z,45.4
2022-12-17T06:05:17.653Z,45.4
2022-12-17T06:10:17.996Z,45.4
2022-12-17T06:15:17.664Z,45.4
2022-12-17T06:20:17.706Z,45.4
2022-12-17T06:25:17.805Z,45.2
2022-12-17T06:30:19.116Z,45.4
2022-12-17T06:35:17.977Z,45.3
2022-12-17T06:40:17.892Z,45.3
2022-12-17T06:45:17.688Z,45.5
2022-12-17T06:50:18.011Z,45.4
2022-12-17T06:55:17.768Z,45.3
2022-12-17T07:00:17.879Z,45.4
2022-12-17T07:05:17.777Z,45.2
2022-12-17T07:10:18.347Z,45.1
2022-12-17T07:15:17.823Z,45.0
2022-12-17T07:20:18.262Z,45.1
2022-12-17T07:25:17.883Z,45.2
2022-12-17T07:30:17.918Z,43.4
2022-12-17T07:35:17.938Z,43.2
2022-12-17T07:40:18.243Z,43.1
2022-12-17T07:45:18.096Z,42.6
2022-12-17T07:50:17.937Z,41.9
2022-12-17T07:55:18.324Z,41.7
2022-12-17T08:00:18.939Z,41.6
2022-12-17T08:05:17.954Z,41.6
2022-12-17T08:10:18.128Z,41.6
2022-12-17T08:15:17.981Z,41.6
2022-12-17T08:20:18.338Z,41.3
2022-12-17T08:25:18.272Z,41.0
2022-12-17T08:30:18.608Z,40.9
2022-12-17T08:35:18.019Z,40.9
2022-12-17T08:40:20.430Z,40.7
2022-12-17T08:45:18.261Z,40.7
2022-12-17T08:50:18.154Z,40.6
2022-12-17T08:55:18.384Z,40.5
2022-12-17T09:00:18.187Z,40.6
2022-12-17T09:05:18.238Z,40.5
2022-12-17T09:10:18.334Z,40.1
2022-12-17T09:15:18.214Z,40.3
2022-12-17T09:20:18.359Z,40.3
2022-12-17T09:25:16.210Z,40.4
2022-12-17T09:30:16.417Z,40.4
2022-12-17T09:35:16.133Z,40.4
2022-12-17T09:40:16.634Z,40.3
2022-12-17T09:45:16.205Z,40.4
2022-12-17T09:50:16.661Z,40.2
2022-12-17T09:55:16.310Z,40.2
2022-12-17T10:00:17.834Z,40.2
2022-12-17T10:05:16.330Z,40.2
2022-12-17T10:10:16.398Z,40.2
2022-12-17T10:15:16.265Z,40.3
2022-12-17T10:20:16.512Z,40.4
2022-12-17T10:25:16.433Z,40.3
2022-12-17T10:30:16.488Z,40.3
2022-12-17T10:35:16.458Z,40.2
2022-12-17T10:40:16.793Z,40.0
2022-12-17T10:45:16.395Z,39.9
2022-12-17T13:55:17.362Z,37.1
2022-12-17T14:00:18.725Z,37.2
2022-12-17T14:05:16.928Z,37.2
2022-12-17T14:10:17.190Z,37.3
2022-12-17T14:15:16.954Z,37.2
2022-12-17T14:20:16.980Z,37.1
2022-12-17T14:25:17.032Z,37.2
2022-12-17T14:30:17.035Z,37.3
2022-12-17T14:35:17.159Z,37.4
2022-12-17T14:40:17.122Z,37.3
2022-12-17T14:45:17.071Z,37.3
2022-12-17T14:50:17.102Z,37.5
2022-12-17T14:55:17.200Z,37.5
2022-12-17T15:00:17.206Z,37.6
2022-12-17T15:05:17.261Z,37.7
2022-12-17T15:10:17.630Z,37.7
2022-12-17T15:15:17.256Z,38.1
2022-12-17T15:20:17.145Z,37.9
2022-12-17T15:25:17.217Z,38.0
2022-12-17T15:30:17.183Z,38.0
2022-12-17T15:35:17.097Z,38.0
2022-12-17T15:40:17.331Z,38.1
2022-12-17T15:45:17.388Z,38.3
2022-12-17T15:50:17.338Z,38.4
2022-12-17T15:55:17.262Z,38.4
2022-12-17T16:00:18.171Z,38.5
2022-12-17T16:05:17.266Z,38.6
2022-12-17T16:10:17.353Z,38.9
2022-12-17T16:15:17.689Z,39.1
2022-12-17T16:20:17.404Z,39.1
2022-12-17T16:25:17.703Z,39.4
2022-12-17T16:30:17.277Z,39.3
2022-12-17T16:35:17.276Z,39.4
2022-12-17T16:40:17.477Z,39.4
2022-12-17T16:45:17.368Z,39.3
2022-12-17T16:50:17.542Z,39.3
2022-12-17T16:55:18.130Z,39.2
2022-12-17T17:00:17.661Z,39.3
2022-12-17T17:05:17.502Z,39.3
2022-12-17T17:10:17.632Z,39.7
2022-12-17T17:15:17.402Z,40.1
2022-12-17T17:20:17.439Z,40.2
2022-12-17T17:25:17.817Z,40.2
2022-12-17T17:30:17.458Z,40.2
2022-12-17T17:35:17.552Z,40.4
2022-12-17T17:40:17.809Z,40.3
2022-12-17T17:45:17.558Z,40.4
2022-12-17T17:50:17.689Z,40.5
2022-12-17T17:55:17.539Z,40.8
2022-12-17T18:00:18.935Z,40.8
2022-12-17T18:05:17.615Z,41.0
2022-12-17T18:10:17.608Z,41.2
2022-12-17T18:15:18.556Z,41.0
2022-12-17T18:20:17.640Z,41.0
2022-12-17T18:25:17.829Z,40.8
2022-12-17T18:30:17.797Z,41.0
2022-12-17T18:35:17.718Z,41.2
2022-12-17T18:40:17.824Z,41.3
2022-12-17T18:45:17.857Z,41.3
2022-12-17T18:50:17.720Z,41.1
2022-12-17T18:55:17.855Z,40.9
2022-12-17T19:00:17.848Z,40.6
2022-12-17T19:05:17.705Z,40.2
2022-12-17T19:10:17.958Z,40.0
2022-12-17T19:15:17.701Z,40.0
2022-12-17T19:20:17.794Z,40.0
2022-12-17T19:25:17.960Z,40.0
2022-12-17T19:30:17.865Z,39.5
2022-12-17T19:35:18.028Z,39.8
2022-12-17T19:40:17.927Z,40.1
2022-12-17T19:45:17.954Z,40.2
2022-12-17T19:50:17.890Z,40.4
2022-12-17T19:55:18.164Z,40.5
2022-12-17T20:00:18.931Z,40.4
2022-12-17T20:05:18.160Z,40.5
2022-12-17T20:10:18.352Z,40.6
2022-12-17T20:15:17.842Z,40.6
2022-12-17T20:20:18.217Z,40.8
2022-12-17T20:25:17.908Z,40.8
2022-12-17T20:30:17.991Z,40.9
2022-12-17T20:35:18.107Z,40.8
2022-12-17T20:40:18.174Z,40.9
2022-12-17T20:45:18.100Z,40.9
2022-12-17T20:50:18.022Z,41.0
2022-12-17T20:55:18.271Z,41.0
2022-12-17T21:00:18.039Z,41.1
2022-12-17T21:05:18.269Z,41.0
2022-12-17T21:10:18.516Z,41.0
2022-12-17T21:15:18.114Z,41.0
2022-12-17T21:20:18.289Z,41.0
2022-12-17T21:25:18.362Z,41.1
2022-12-17T21:30:18.388Z,41.0
2022-12-17T21:35:18.166Z,41.0
2022-12-17T21:40:18.200Z,40.9
2022-12-17T21:45:18.487Z,40.9
2022-12-17T21:50:16.246Z,40.9
2022-12-17T21:55:16.243Z,40.9
2022-12-17T22:00:17.010Z,40.9
2022-12-17T22:05:18.073Z,40.9
2022-12-17T22:10:23.317Z,40.9
2022-12-17T22:15:16.444Z,40.9
2022-12-17T22:20:16.237Z,40.8
2022-12-17T22:25:16.320Z,40.8
2022-12-17T22:30:16.411Z,40.8
2022-12-17T22:36:29.020Z,40.7
2022-12-17T22:37:38.186Z,40.7
2022-12-17T22:39:57.622Z,40.7
2022-12-17T22:41:22.229Z,40.7
2022-12-17T22:44:34.587Z,40.7
2022-12-17T22:45:17.016Z,40.7
2022-12-17T22:50:16.458Z,40.7
2022-12-17T22:55:16.586Z,40.7
2022-12-17T23:00:16.539Z,40.5
2022-12-17T23:05:16.627Z,40.4
2022-12-17T23:10:16.850Z,40.3
2022-12-17T23:15:16.682Z,40.3
2022-12-17T23:20:16.636Z,40.3
2022-12-17T23:25:16.823Z,40.1
2022-12-17T23:30:16.550Z,40.0
2022-12-17T23:35:16.438Z,39.9
2022-12-17T23:40:16.735Z,39.7
2022-12-17T23:45:16.534Z,39.6
2022-12-17T23:50:16.681Z,39.5
2022-12-17T23:55:16.598Z,39.3
